createdAt,value
2017-10-10T00:00:02.542Z,14.6
2017-10-10T00:01:04.971Z,14.6
2017-10-10T00:02:07.394Z,14.6
2017-10-10T00:03:09.823Z,14.6
2017-10-10T00:04:12.240Z,14.5
2017-10-10T00:05:14.675Z,14.5
2017-10-10T00:06:17.113Z,14.5
2017-10-10T00:07:19.537Z,14.5
2017-10-10T00:08:22.321Z,14.5
2017-10-10T00:09:24.758Z,14.5
2017-10-10T00:10:27.181Z,14.5
2017-10-10T00:11:29.611Z,14.5
2017-10-10T00:12:32.385Z,14.5
2017-10-10T00:13:34.813Z,14.5
2017-10-10T00:14:37.241Z,14.4
2017-10-10T00:15:40.036Z,14.5
2017-10-10T00:16:42.475Z,14.4
2017-10-10T00:17:44.894Z,14.4
2017-10-10T00:18:47.325Z,14.4
2017-10-10T00:19:50.120Z,14.4
2017-10-10T00:20:52.554Z,14.4
2017-10-10T00:21:54.974Z,14.4
2017-10-10T00:22:57.402Z,14.4
2017-10-10T00:23:59.829Z,14.4
2017-10-10T00:25:02.260Z,14.4
2017-10-10T00:26:05.057Z,14.5
2017-10-10T00:27:07.474Z,14.5
2017-10-10T00:28:09.900Z,14.4
2017-10-10T00:29:12.320Z,14.5
2017-10-10T00:30:14.749Z,14.5
2017-10-10T00:31:17.544Z,14.5
2017-10-10T00:32:19.972Z,14.5
2017-10-10T00:33:22.387Z,14.5
2017-10-10T00:34:24.821Z,14.5
2017-10-10T00:35:27.258Z,14.5
2017-10-10T00:36:29.685Z,14.5
2017-10-10T00:37:32.119Z,14.5
2017-10-10T00:38:34.544Z,14.6
2017-10-10T00:39:36.969Z,14.6
2017-10-10T00:40:39.401Z,14.6
2017-10-10T00:41:41.823Z,14.6
2017-10-10T00:42:44.253Z,14.6
2017-10-10T00:43:46.679Z,14.6
2017-10-10T00:44:49.851Z,14.6
2017-10-10T00:45:52.278Z,14.6
2017-10-10T00:46:54.707Z,14.6
2017-10-10T00:47:57.145Z,14.6
2017-10-10T00:48:59.562Z,14.6
2017-10-10T00:50:02.356Z,14.7
2017-10-10T00:51:05.150Z,14.7
2017-10-10T00:52:07.572Z,14.7
2017-10-10T00:53:09.994Z,14.7
2017-10-10T00:54:12.427Z,14.7
2017-10-10T00:55:14.859Z,14.7
2017-10-10T00:56:17.645Z,14.7
2017-10-10T00:57:21.405Z,14.7
2017-10-10T00:58:23.796Z,14.6
2017-10-10T00:59:26.224Z,14.6
2017-10-10T01:00:29.005Z,14.6
2017-10-10T01:01:31.436Z,14.6
2017-10-10T01:02:33.864Z,14.6
2017-10-10T01:03:36.324Z,14.6
2017-10-10T01:04:38.708Z,14.6
2017-10-10T01:05:41.144Z,14.6
2017-10-10T01:06:43.574Z,14.6
2017-10-10T01:07:45.997Z,14.6
2017-10-10T01:08:48.420Z,14.6
2017-10-10T01:09:51.193Z,14.6
2017-10-10T01:10:53.617Z,14.6
2017-10-10T01:11:56.766Z,14.6
2017-10-10T01:12:59.541Z,14.6
2017-10-10T01:14:02.320Z,14.6
2017-10-10T01:15:04.747Z,14.6
2017-10-10T01:16:07.175Z,14.6
2017-10-10T01:17:09.605Z,14.6
2017-10-10T01:18:12.021Z,14.6
2017-10-10T01:19:14.448Z,14.6
2017-10-10T01:20:16.875Z,14.6
2017-10-10T01:21:19.303Z,14.6
2017-10-10T01:22:21.740Z,14.6
2017-10-10T01:23:24.523Z,14.6
2017-10-10T01:24:26.945Z,14.7
2017-10-10T01:25:29.388Z,14.6
2017-10-10T01:26:31.820Z,14.7
2017-10-10T01:27:34.242Z,14.7
2017-10-10T01:28:36.663Z,14.7
2017-10-10T01:29:39.100Z,14.7
2017-10-10T01:30:41.535Z,14.7
2017-10-10T01:31:43.966Z,14.7
2017-10-10T01:32:46.405Z,14.7
2017-10-10T01:33:48.807Z,14.8
2017-10-10T01:34:51.232Z,14.8
2017-10-10T01:35:53.662Z,14.8
2017-10-10T01:36:56.088Z,14.8
2017-10-10T01:37:58.519Z,14.8
2017-10-10T01:39:00.942Z,14.8
2017-10-10T01:40:03.382Z,14.8
2017-10-10T01:41:06.197Z,14.9
2017-10-10T01:42:08.615Z,14.9
2017-10-10T01:43:11.042Z,14.9
2017-10-10T01:44:13.837Z,14.9
2017-10-10T01:45:16.265Z,14.9
2017-10-10T01:46:18.699Z,14.9
2017-10-10T01:47:21.485Z,14.9
2017-10-10T01:48:24.284Z,14.9
2017-10-10T01:49:26.701Z,14.9
2017-10-10T01:50:29.132Z,14.9
2017-10-10T01:51:31.561Z,14.9
2017-10-10T01:52:33.988Z,14.9
2017-10-10T01:53:36.417Z,14.9
2017-10-10T01:54:39.184Z,14.9
2017-10-10T01:55:41.615Z,14.9
2017-10-10T01:56:44.054Z,14.9
2017-10-10T01:57:46.482Z,14.8
2017-10-10T01:58:49.270Z,14.8
2017-10-10T01:59:51.704Z,14.8
2017-10-10T02:00:54.122Z,14.8
2017-10-10T02:01:56.546Z,14.8
2017-10-10T02:02:58.979Z,14.8
2017-10-10T02:04:01.397Z,14.8
2017-10-10T02:05:03.832Z,14.8
2017-10-10T02:06:06.261Z,14.8
2017-10-10T02:07:08.683Z,14.8
2017-10-10T02:08:11.126Z,14.8
2017-10-10T02:09:13.551Z,14.8
2017-10-10T02:10:15.978Z,14.8
2017-10-10T02:11:18.406Z,14.8
2017-10-10T02:12:21.192Z,14.8
2017-10-10T02:13:23.618Z,14.8
2017-10-10T02:14:26.401Z,14.7
2017-10-10T02:15:29.176Z,14.7
2017-10-10T02:16:31.612Z,14.8
2017-10-10T02:17:34.046Z,14.8
2017-10-10T02:18:36.463Z,14.8
2017-10-10T02:19:38.877Z,14.8
2017-10-10T02:20:41.315Z,14.8
2017-10-10T02:21:43.739Z,14.8
2017-10-10T02:22:46.170Z,14.8
2017-10-10T02:23:48.605Z,14.9
2017-10-10T02:24:51.030Z,14.8
2017-10-10T02:25:53.462Z,14.8
2017-10-10T02:26:55.884Z,14.8
2017-10-10T02:27:58.312Z,14.8
2017-10-10T02:29:01.096Z,14.9
2017-10-10T02:30:03.893Z,14.8
2017-10-10T02:31:06.324Z,14.8
2017-10-10T02:32:08.743Z,14.8
2017-10-10T02:33:11.173Z,14.8
2017-10-10T02:34:13.605Z,14.8
2017-10-10T02:35:16.041Z,14.8
2017-10-10T02:36:18.467Z,14.9
2017-10-10T02:37:21.263Z,14.9
2017-10-10T02:38:23.691Z,14.9
2017-10-10T02:39:26.123Z,14.9
2017-10-10T02:40:28.914Z,14.9
2017-10-10T02:41:31.332Z,14.9
2017-10-10T02:42:33.760Z,14.9
2017-10-10T02:43:36.915Z,14.9
2017-10-10T02:44:39.695Z,14.9
2017-10-10T02:45:42.117Z,14.9
2017-10-10T02:46:44.899Z,15
2017-10-10T02:47:47.331Z,15
2017-10-10T02:48:50.468Z,15
2017-10-10T02:49:52.898Z,15
2017-10-10T02:50:55.336Z,15
2017-10-10T02:51:57.767Z,15
2017-10-10T02:53:00.190Z,15
2017-10-10T02:54:02.614Z,15
2017-10-10T02:55:05.034Z,15
2017-10-10T02:56:07.476Z,15
2017-10-10T02:57:09.892Z,15
2017-10-10T02:58:12.333Z,15
2017-10-10T02:59:14.761Z,15
2017-10-10T03:00:17.189Z,15
2017-10-10T03:01:19.628Z,15
2017-10-10T03:02:22.052Z,15.1
2017-10-10T03:03:24.465Z,15.1
2017-10-10T03:04:26.904Z,15.1
2017-10-10T03:05:29.336Z,15.1
2017-10-10T03:06:31.757Z,15.1
2017-10-10T03:07:34.193Z,15.1
2017-10-10T03:08:36.977Z,15.1
2017-10-10T03:09:39.403Z,15.1
2017-10-10T03:10:41.842Z,15.1
2017-10-10T03:11:44.275Z,15.1
2017-10-10T03:12:46.737Z,15.1
2017-10-10T03:13:49.519Z,15.1
2017-10-10T03:14:51.946Z,15.1
2017-10-10T03:15:54.731Z,15.1
2017-10-10T03:16:57.158Z,15.1
2017-10-10T03:17:59.587Z,15.1
2017-10-10T03:19:02.008Z,15.1
2017-10-10T03:20:04.810Z,15.1
2017-10-10T03:21:07.242Z,15.2
2017-10-10T03:22:10.012Z,15.1
2017-10-10T03:23:12.435Z,15.1
2017-10-10T03:24:14.856Z,15.1
2017-10-10T03:25:17.293Z,15.2
2017-10-10T03:26:19.720Z,15.2
2017-10-10T03:27:22.147Z,15.2
2017-10-10T03:28:24.951Z,15.2
2017-10-10T03:29:27.389Z,15.2
2017-10-10T03:30:29.821Z,15.2
2017-10-10T03:31:32.240Z,15.2
2017-10-10T03:32:35.028Z,15.2
2017-10-10T03:33:37.456Z,15.2
2017-10-10T03:34:39.885Z,15.1
2017-10-10T03:35:42.315Z,15.1
2017-10-10T03:36:44.732Z,15.1
2017-10-10T03:37:47.162Z,15.1
2017-10-10T03:38:49.598Z,15.1
2017-10-10T03:39:52.023Z,15.1
2017-10-10T03:40:54.838Z,15.1
2017-10-10T03:41:57.261Z,15.1
2017-10-10T03:42:59.696Z,15.1
2017-10-10T03:44:02.131Z,15.1
2017-10-10T03:45:04.570Z,15.1
2017-10-10T03:46:06.988Z,15.1
2017-10-10T03:47:09.415Z,15.1
2017-10-10T03:48:11.841Z,15.1
2017-10-10T03:49:14.278Z,15.1
2017-10-10T03:50:16.703Z,15.1
2017-10-10T03:51:19.133Z,15.1
2017-10-10T03:52:21.559Z,15.1
2017-10-10T03:53:24.001Z,15.1
2017-10-10T03:54:26.786Z,15.1
2017-10-10T03:55:29.209Z,15.1
2017-10-10T03:56:31.648Z,15.1
2017-10-10T03:57:34.073Z,15.1
2017-10-10T03:58:36.505Z,15.1
2017-10-10T03:59:38.937Z,15.1
2017-10-10T04:00:41.356Z,15
2017-10-10T04:01:44.161Z,15
2017-10-10T04:02:46.611Z,15
2017-10-10T04:03:49.406Z,15
2017-10-10T04:04:51.840Z,15.1
2017-10-10T04:05:54.266Z,15.1
2017-10-10T04:06:56.697Z,15.1
2017-10-10T04:07:59.125Z,15.1
2017-10-10T04:09:01.553Z,15.1
2017-10-10T04:10:03.973Z,15.1
2017-10-10T04:11:06.415Z,15.1
2017-10-10T04:12:09.216Z,15.1
2017-10-10T04:13:11.624Z,15.1
2017-10-10T04:14:14.083Z,15.1
2017-10-10T04:15:16.524Z,15.1
2017-10-10T04:16:19.130Z,15.1
2017-10-10T04:17:21.538Z,15.1
2017-10-10T04:18:23.974Z,15.1
2017-10-10T04:19:26.402Z,15.1
2017-10-10T04:20:28.840Z,15.1
2017-10-10T04:21:31.632Z,15.1
2017-10-10T04:22:34.061Z,15.1
2017-10-10T04:23:36.492Z,15.1
2017-10-10T04:24:38.933Z,15.1
2017-10-10T04:25:41.360Z,15.1
2017-10-10T04:26:43.791Z,15.1
2017-10-10T04:27:46.587Z,15.1
2017-10-10T04:28:49.007Z,15.1
2017-10-10T04:29:51.436Z,15.1
2017-10-10T04:30:53.874Z,15.1
2017-10-10T04:31:56.299Z,15.1
2017-10-10T04:32:59.079Z,15.1
2017-10-10T04:34:01.502Z,15.1
2017-10-10T04:35:03.923Z,15.1
2017-10-10T04:36:06.363Z,15.1
2017-10-10T04:37:08.792Z,15.1
2017-10-10T04:38:11.566Z,15.1
2017-10-10T04:39:13.997Z,15.1
2017-10-10T04:40:16.433Z,15
2017-10-10T04:41:18.850Z,15
2017-10-10T04:42:21.679Z,15
2017-10-10T04:43:24.471Z,15
2017-10-10T04:44:26.898Z,15
2017-10-10T04:45:29.321Z,15
2017-10-10T04:46:32.107Z,15
2017-10-10T04:47:34.533Z,15
2017-10-10T04:48:36.965Z,15
2017-10-10T04:49:39.744Z,15
2017-10-10T04:50:42.165Z,15
2017-10-10T04:51:44.589Z,15
2017-10-10T04:52:47.032Z,15
2017-10-10T04:53:49.459Z,15
2017-10-10T04:54:51.891Z,15
2017-10-10T04:55:54.330Z,15
2017-10-10T04:56:57.119Z,15
2017-10-10T04:57:59.545Z,15
2017-10-10T04:59:01.976Z,15
2017-10-10T05:00:04.402Z,15
2017-10-10T05:01:06.835Z,15
2017-10-10T05:02:09.261Z,15
2017-10-10T05:03:11.681Z,15
2017-10-10T05:04:14.119Z,15
2017-10-10T05:05:16.552Z,15
2017-10-10T05:06:18.981Z,15
2017-10-10T05:07:21.415Z,15
2017-10-10T05:08:24.206Z,15
2017-10-10T05:09:26.635Z,15
2017-10-10T05:10:29.064Z,15
2017-10-10T05:11:31.493Z,15
2017-10-10T05:12:33.924Z,15
2017-10-10T05:13:36.360Z,15
2017-10-10T05:14:38.781Z,15
2017-10-10T05:15:41.217Z,15
2017-10-10T05:16:43.632Z,15
2017-10-10T05:17:46.068Z,15
2017-10-10T05:18:48.489Z,15
2017-10-10T05:19:50.918Z,14.9
2017-10-10T05:20:53.352Z,15
2017-10-10T05:21:55.776Z,15
2017-10-10T05:22:58.204Z,15
2017-10-10T05:24:00.639Z,15
2017-10-10T05:25:03.063Z,15
2017-10-10T05:26:05.502Z,14.9
2017-10-10T05:27:07.937Z,14.9
2017-10-10T05:28:10.347Z,14.9
2017-10-10T05:29:12.773Z,14.9
2017-10-10T05:30:15.199Z,14.9
2017-10-10T05:31:17.627Z,14.9
2017-10-10T05:32:20.063Z,14.9
2017-10-10T05:33:22.479Z,14.8
2017-10-10T05:34:24.906Z,14.8
2017-10-10T05:35:27.362Z,14.8
2017-10-10T05:36:30.503Z,14.7
2017-10-10T05:37:32.935Z,14.7
2017-10-10T05:38:35.367Z,14.7
2017-10-10T05:39:37.791Z,14.7
2017-10-10T05:40:40.215Z,14.7
2017-10-10T05:41:42.643Z,14.6
2017-10-10T05:42:45.087Z,14.6
2017-10-10T05:43:47.508Z,14.6
2017-10-10T05:44:50.295Z,14.6
2017-10-10T05:45:52.722Z,14.6
2017-10-10T05:46:55.146Z,14.6
2017-10-10T05:47:57.575Z,14.6
2017-10-10T05:49:00.353Z,14.5
2017-10-10T05:50:02.768Z,14.5
2017-10-10T05:51:05.204Z,14.5
2017-10-10T05:52:07.621Z,14.5
2017-10-10T05:53:10.409Z,14.4
2017-10-10T05:54:12.831Z,14.4
2017-10-10T05:55:15.253Z,14.4
2017-10-10T05:56:18.036Z,14.4
2017-10-10T05:57:20.467Z,14.3
2017-10-10T05:58:22.898Z,14.3
2017-10-10T05:59:25.317Z,14.3
2017-10-10T06:00:27.749Z,14.3
2017-10-10T06:01:30.175Z,14.3
2017-10-10T06:02:32.605Z,14.2
2017-10-10T06:03:35.034Z,14.2
2017-10-10T06:04:37.450Z,14.2
2017-10-10T06:05:39.885Z,14.2
2017-10-10T06:06:42.313Z,14.2
2017-10-10T06:07:44.736Z,14.2
2017-10-10T06:08:47.159Z,14.2
2017-10-10T06:09:49.681Z,14.2
2017-10-10T06:10:52.115Z,14.2
2017-10-10T06:11:54.547Z,14.2
2017-10-10T06:12:56.980Z,14.2
2017-10-10T06:13:59.404Z,14.2
2017-10-10T06:15:02.180Z,14.2
2017-10-10T06:16:04.959Z,14.2
2017-10-10T06:17:07.393Z,14.2
2017-10-10T06:18:09.807Z,14.2
2017-10-10T06:19:12.236Z,14.2
2017-10-10T06:20:14.664Z,14.2
2017-10-10T06:21:17.099Z,14.2
2017-10-10T06:22:19.532Z,14.2
2017-10-10T06:23:21.961Z,14.2
2017-10-10T06:24:24.746Z,14.2
2017-10-10T06:25:27.172Z,14.2
2017-10-10T06:26:29.597Z,14.2
2017-10-10T06:27:32.021Z,14.2
2017-10-10T06:28:34.456Z,14.2
2017-10-10T06:29:36.877Z,14.1
2017-10-10T06:30:39.310Z,14.1
2017-10-10T06:31:41.746Z,14.1
2017-10-10T06:32:44.166Z,14.1
2017-10-10T06:33:46.940Z,14.1
2017-10-10T06:34:49.371Z,14.1
2017-10-10T06:35:51.798Z,14.1
2017-10-10T06:36:54.589Z,14.1
2017-10-10T06:37:57.015Z,14.1
2017-10-10T06:38:59.445Z,14.1
2017-10-10T06:40:01.875Z,14.1
2017-10-10T06:41:04.295Z,14.1
2017-10-10T06:42:06.735Z,14.1
2017-10-10T06:43:09.162Z,14.1
2017-10-10T06:44:11.586Z,14.1
2017-10-10T06:45:14.008Z,14.1
2017-10-10T06:46:16.788Z,14.1
2017-10-10T06:47:19.210Z,14.2
2017-10-10T06:48:21.643Z,14.2
2017-10-10T06:49:24.421Z,14.2
2017-10-10T06:50:26.847Z,14.2
2017-10-10T06:51:29.283Z,14.2
2017-10-10T06:52:31.710Z,14.2
2017-10-10T06:53:34.146Z,14.2
2017-10-10T06:54:36.570Z,14.2
2017-10-10T06:55:38.990Z,14.3
2017-10-10T06:56:41.791Z,14.2
2017-10-10T06:57:44.223Z,14.3
2017-10-10T06:58:46.643Z,14.3
2017-10-10T06:59:49.072Z,14.3
2017-10-10T07:00:51.506Z,14.3
2017-10-10T07:01:53.928Z,14.3
2017-10-10T07:02:56.362Z,14.3
2017-10-10T07:03:58.772Z,14.3
2017-10-10T07:05:01.193Z,14.3
2017-10-10T07:06:03.632Z,14.3
2017-10-10T07:07:06.064Z,14.3
2017-10-10T07:08:08.502Z,14.3
2017-10-10T07:09:11.257Z,14.3
2017-10-10T07:10:13.678Z,14.4
2017-10-10T07:11:16.460Z,14.3
2017-10-10T07:12:18.881Z,14.3
2017-10-10T07:13:21.321Z,14.4
2017-10-10T07:14:23.747Z,14.3
2017-10-10T07:15:26.161Z,14.4
2017-10-10T07:16:28.597Z,14.4
2017-10-10T07:17:31.024Z,14.4
2017-10-10T07:18:33.459Z,14.4
2017-10-10T07:19:35.886Z,14.4
2017-10-10T07:20:38.664Z,14.4
2017-10-10T07:21:41.098Z,14.4
2017-10-10T07:22:43.532Z,14.5
2017-10-10T07:23:46.328Z,14.5
2017-10-10T07:24:49.106Z,14.5
2017-10-10T07:25:51.536Z,14.5
2017-10-10T07:26:53.962Z,14.5
2017-10-10T07:27:56.398Z,14.5
2017-10-10T07:28:58.832Z,14.5
2017-10-10T07:30:01.244Z,14.6
2017-10-10T07:31:03.682Z,14.6
2017-10-10T07:32:06.104Z,14.6
2017-10-10T07:33:08.533Z,14.6
2017-10-10T07:34:10.954Z,14.7
2017-10-10T07:35:13.379Z,14.7
2017-10-10T07:36:15.810Z,14.8
2017-10-10T07:37:18.254Z,14.8
2017-10-10T07:38:21.027Z,14.8
2017-10-10T07:39:23.467Z,14.9
2017-10-10T07:40:25.895Z,14.9
2017-10-10T07:41:28.316Z,15
2017-10-10T07:42:30.745Z,15.1
2017-10-10T07:43:33.179Z,15.1
2017-10-10T07:44:35.613Z,15.2
2017-10-10T07:45:38.057Z,15.2
2017-10-10T07:46:40.487Z,15.3
2017-10-10T07:47:42.932Z,15.4
2017-10-10T07:48:45.397Z,15.5
2017-10-10T07:49:47.823Z,15.5
2017-10-10T07:50:50.258Z,15.5
2017-10-10T07:51:52.693Z,15.6
2017-10-10T07:52:55.128Z,15.6
2017-10-10T07:53:57.599Z,15.6
2017-10-10T07:55:00.047Z,15.7
2017-10-10T07:56:02.481Z,15.7
2017-10-10T07:57:04.922Z,15.7
2017-10-10T07:58:07.349Z,15.7
2017-10-10T07:59:10.137Z,15.8
2017-10-10T08:00:12.567Z,15.8
2017-10-10T08:01:14.993Z,15.8
2017-10-10T08:02:17.429Z,15.8
2017-10-10T08:03:20.252Z,15.9
2017-10-10T08:04:22.690Z,15.9
2017-10-10T08:05:25.124Z,15.9
2017-10-10T08:06:27.553Z,15.9
2017-10-10T08:07:30.350Z,15.9
2017-10-10T08:08:32.782Z,15.9
2017-10-10T08:09:35.586Z,16
2017-10-10T08:10:38.024Z,16
2017-10-10T08:11:40.447Z,16
2017-10-10T08:12:43.232Z,16
2017-10-10T08:13:45.656Z,16
2017-10-10T08:14:48.100Z,16
2017-10-10T08:15:50.526Z,16
2017-10-10T08:16:52.954Z,16.1
2017-10-10T08:17:55.747Z,16.1
2017-10-10T08:18:58.175Z,16.1
2017-10-10T08:20:00.603Z,16.1
2017-10-10T08:21:03.399Z,16.1
2017-10-10T08:22:05.814Z,16.2
2017-10-10T08:23:08.249Z,16.2
2017-10-10T08:24:10.686Z,16.2
2017-10-10T08:25:13.124Z,16.3
2017-10-10T08:26:15.550Z,16.3
2017-10-10T08:27:17.974Z,16.3
2017-10-10T08:28:20.399Z,16.3
2017-10-10T08:29:22.839Z,16.3
2017-10-10T08:30:25.263Z,16.3
2017-10-10T08:31:27.712Z,16.3
2017-10-10T08:32:30.129Z,16.4
2017-10-10T08:33:32.558Z,16.4
2017-10-10T08:34:34.985Z,16.4
2017-10-10T08:35:37.422Z,16.4
2017-10-10T08:36:39.845Z,16.4
2017-10-10T08:37:42.280Z,16.4
2017-10-10T08:38:44.716Z,16.5
2017-10-10T08:39:47.529Z,16.5
2017-10-10T08:40:49.954Z,16.5
2017-10-10T08:41:52.391Z,16.5
2017-10-10T08:42:54.827Z,16.5
2017-10-10T08:43:57.268Z,16.6
2017-10-10T08:45:00.095Z,16.6
2017-10-10T08:46:02.541Z,16.6
2017-10-10T08:47:04.973Z,16.6
2017-10-10T08:48:07.406Z,16.6
2017-10-10T08:49:09.842Z,16.6
2017-10-10T08:50:12.271Z,16.6
2017-10-10T08:51:14.703Z,16.7
2017-10-10T08:52:17.126Z,16.7
2017-10-10T08:53:19.562Z,16.7
2017-10-10T08:54:21.987Z,16.7
2017-10-10T08:55:24.413Z,16.7
2017-10-10T08:56:26.846Z,16.7
2017-10-10T08:57:29.269Z,16.7
2017-10-10T08:58:31.695Z,16.7
2017-10-10T08:59:34.133Z,16.7
2017-10-10T09:00:36.566Z,16.7
2017-10-10T09:01:39.006Z,16.7
2017-10-10T09:02:41.438Z,16.7
2017-10-10T09:03:43.878Z,16.7
2017-10-10T09:04:46.310Z,16.7
2017-10-10T09:05:48.742Z,16.7
2017-10-10T09:06:51.169Z,16.7
2017-10-10T09:07:53.626Z,16.7
2017-10-10T09:08:56.086Z,16.7
2017-10-10T09:09:59.286Z,16.8
2017-10-10T09:11:01.740Z,16.8
2017-10-10T09:12:04.187Z,16.8
2017-10-10T09:13:06.986Z,16.8
2017-10-10T09:14:09.434Z,16.8
2017-10-10T09:15:11.889Z,16.8
2017-10-10T09:16:14.330Z,16.9
2017-10-10T09:17:16.756Z,16.8
2017-10-10T09:18:19.189Z,16.9
2017-10-10T09:19:21.630Z,16.9
2017-10-10T09:20:24.434Z,17
2017-10-10T09:21:26.859Z,17
2017-10-10T09:22:29.290Z,17
2017-10-10T09:23:31.720Z,17
2017-10-10T09:24:34.164Z,17.1
2017-10-10T09:25:36.972Z,17.1
2017-10-10T09:26:39.401Z,17.1
2017-10-10T09:27:41.842Z,17.1
2017-10-10T09:28:44.288Z,17.1
2017-10-10T09:29:46.749Z,17.1
2017-10-10T09:30:49.209Z,17.2
2017-10-10T09:31:51.668Z,17.2
2017-10-10T09:32:54.132Z,17.2
2017-10-10T09:33:56.592Z,17.2
2017-10-10T09:34:59.050Z,17.2
2017-10-10T09:36:01.492Z,17.3
2017-10-10T09:37:04.291Z,17.3
2017-10-10T09:38:06.733Z,17.3
2017-10-10T09:39:09.925Z,17.3
2017-10-10T09:40:12.368Z,17.3
2017-10-10T09:41:14.836Z,17.3
2017-10-10T09:42:17.635Z,17.4
2017-10-10T09:43:20.055Z,17.4
2017-10-10T09:44:22.501Z,17.4
2017-10-10T09:45:24.953Z,17.4
2017-10-10T09:46:27.435Z,17.5
2017-10-10T09:47:29.889Z,17.5
2017-10-10T09:48:32.345Z,17.6
2017-10-10T09:49:34.807Z,17.6
2017-10-10T09:50:37.271Z,17.6
2017-10-10T09:51:39.731Z,17.6
2017-10-10T09:52:42.188Z,17.6
2017-10-10T09:53:44.637Z,17.7
2017-10-10T09:54:47.109Z,17.7
2017-10-10T09:55:49.561Z,17.7
2017-10-10T09:56:52.367Z,17.8
2017-10-10T09:57:54.826Z,17.8
2017-10-10T09:58:57.262Z,17.9
2017-10-10T09:59:59.685Z,17.9
2017-10-10T10:01:02.482Z,18
2017-10-10T10:02:04.908Z,18
2017-10-10T10:03:07.349Z,18
2017-10-10T10:04:10.123Z,18
2017-10-10T10:05:12.563Z,18.1
2017-10-10T10:06:15.370Z,18.1
2017-10-10T10:07:17.814Z,18.2
2017-10-10T10:08:20.234Z,18.2
2017-10-10T10:09:22.676Z,18.2
2017-10-10T10:10:25.459Z,18.3
2017-10-10T10:11:28.256Z,18.3
2017-10-10T10:12:30.684Z,18.4
2017-10-10T10:13:33.120Z,18.5
2017-10-10T10:14:35.556Z,18.6
2017-10-10T10:15:37.994Z,18.6
2017-10-10T10:16:40.780Z,18.7
2017-10-10T10:17:43.635Z,18.8
2017-10-10T10:18:46.072Z,18.8
2017-10-10T10:19:48.504Z,18.8
2017-10-10T10:20:50.954Z,18.9
2017-10-10T10:21:53.385Z,18.9
2017-10-10T10:22:55.820Z,18.9
2017-10-10T10:23:58.260Z,18.9
2017-10-10T10:25:00.695Z,18.9
2017-10-10T10:26:03.117Z,19
2017-10-10T10:27:05.550Z,19
2017-10-10T10:28:07.999Z,19
2017-10-10T10:29:10.426Z,19
2017-10-10T10:30:12.863Z,19
2017-10-10T10:31:15.648Z,19.1
2017-10-10T10:32:18.085Z,19.1
2017-10-10T10:33:20.885Z,19.1
2017-10-10T10:34:23.675Z,19
2017-10-10T10:35:26.101Z,19
2017-10-10T10:36:28.539Z,19
2017-10-10T10:37:30.976Z,19
2017-10-10T10:38:33.411Z,19
2017-10-10T10:39:36.203Z,19
2017-10-10T10:40:38.641Z,19
2017-10-10T10:41:41.074Z,19
2017-10-10T10:42:43.506Z,19
2017-10-10T10:43:45.940Z,19
2017-10-10T10:44:48.376Z,19
2017-10-10T10:45:50.809Z,19
2017-10-10T10:46:53.244Z,19
2017-10-10T10:47:55.669Z,19
2017-10-10T10:48:58.111Z,19
2017-10-10T10:50:00.547Z,19
2017-10-10T10:51:02.978Z,19
2017-10-10T10:52:05.428Z,18.9
2017-10-10T10:53:07.859Z,18.9
2017-10-10T10:54:10.291Z,19
2017-10-10T10:55:13.080Z,19
2017-10-10T10:56:15.524Z,18.9
2017-10-10T10:57:17.956Z,19
2017-10-10T10:58:20.397Z,19
2017-10-10T10:59:22.822Z,19
2017-10-10T11:00:25.261Z,19
2017-10-10T11:01:27.701Z,19
2017-10-10T11:02:30.139Z,19
2017-10-10T11:03:32.568Z,19
2017-10-10T11:04:35.008Z,19.1
2017-10-10T11:05:37.445Z,19.1
2017-10-10T11:06:39.868Z,19
2017-10-10T11:07:42.303Z,19
2017-10-10T11:08:44.743Z,19
2017-10-10T11:09:47.179Z,19
2017-10-10T11:10:49.613Z,19
2017-10-10T11:11:52.051Z,18.9
2017-10-10T11:12:54.467Z,18.9
2017-10-10T11:13:56.918Z,18.8
2017-10-10T11:14:59.353Z,18.8
2017-10-10T11:16:01.781Z,18.9
2017-10-10T11:17:04.217Z,18.8
2017-10-10T11:18:06.654Z,18.8
2017-10-10T11:19:09.084Z,18.9
2017-10-10T11:20:11.523Z,18.9
2017-10-10T11:21:13.960Z,18.9
2017-10-10T11:22:16.392Z,18.9
2017-10-10T11:23:18.838Z,18.9
2017-10-10T11:24:21.269Z,19
2017-10-10T11:25:23.695Z,18.9
2017-10-10T11:26:26.129Z,19
2017-10-10T11:27:28.566Z,19
2017-10-10T11:28:31.005Z,19
2017-10-10T11:29:33.797Z,19
2017-10-10T11:30:36.225Z,19
2017-10-10T11:31:38.665Z,19
2017-10-10T11:32:41.100Z,19
2017-10-10T11:33:43.538Z,19
2017-10-10T11:34:45.957Z,19
2017-10-10T11:35:48.390Z,19
2017-10-10T11:36:50.818Z,19
2017-10-10T11:37:53.264Z,19
2017-10-10T11:38:55.699Z,19
2017-10-10T11:39:58.480Z,19
2017-10-10T11:41:00.913Z,19
2017-10-10T11:42:03.368Z,19
2017-10-10T11:43:06.175Z,19
2017-10-10T11:44:08.610Z,19
2017-10-10T11:45:11.039Z,18.9
2017-10-10T11:46:13.472Z,19
2017-10-10T11:47:15.912Z,19
2017-10-10T11:48:18.344Z,19
2017-10-10T11:49:20.769Z,19
2017-10-10T11:50:23.201Z,19.1
2017-10-10T11:51:25.632Z,19.1
2017-10-10T11:52:28.427Z,19.2
2017-10-10T11:53:30.854Z,19.2
2017-10-10T11:54:33.292Z,19.3
2017-10-10T11:55:35.729Z,19.3
2017-10-10T11:56:38.173Z,19.3
2017-10-10T11:57:40.605Z,19.3
2017-10-10T11:58:43.042Z,19.4
2017-10-10T11:59:45.496Z,19.4
2017-10-10T12:00:47.960Z,19.3
2017-10-10T12:01:50.354Z,19.3
2017-10-10T12:02:52.791Z,19.3
2017-10-10T12:03:55.221Z,19.3
2017-10-10T12:04:58.009Z,19.3
2017-10-10T12:06:00.816Z,19.3
2017-10-10T12:07:03.610Z,19.3
2017-10-10T12:08:06.045Z,19.3
2017-10-10T12:09:08.482Z,19.3
2017-10-10T12:10:10.915Z,19.3
2017-10-10T12:11:13.341Z,19.3
2017-10-10T12:12:15.786Z,19.3
2017-10-10T12:13:18.211Z,19.3
2017-10-10T12:14:20.639Z,19.3
2017-10-10T12:15:23.070Z,19.2
2017-10-10T12:16:25.859Z,19.2
2017-10-10T12:17:28.292Z,19.1
2017-10-10T12:18:30.726Z,19.1
2017-10-10T12:19:33.155Z,19.1
2017-10-10T12:20:35.592Z,19
2017-10-10T12:21:38.024Z,19
2017-10-10T12:22:40.455Z,19
2017-10-10T12:23:42.886Z,19
2017-10-10T12:24:45.332Z,18.9
2017-10-10T12:25:47.763Z,18.9
2017-10-10T12:26:50.199Z,18.9
2017-10-10T12:27:52.988Z,18.9
2017-10-10T12:28:55.426Z,18.9
2017-10-10T12:29:58.208Z,18.9
2017-10-10T12:31:01.017Z,18.8
2017-10-10T12:32:03.422Z,18.8
2017-10-10T12:33:05.852Z,18.8
2017-10-10T12:34:08.294Z,18.8
2017-10-10T12:35:10.718Z,18.7
2017-10-10T12:36:13.155Z,18.7
2017-10-10T12:37:15.603Z,18.7
2017-10-10T12:38:18.033Z,18.7
2017-10-10T12:39:20.469Z,18.6
2017-10-10T12:40:22.903Z,18.6
2017-10-10T12:41:25.336Z,18.6
2017-10-10T12:42:27.773Z,18.6
2017-10-10T12:43:30.209Z,18.6
2017-10-10T12:44:32.632Z,18.5
2017-10-10T12:45:35.070Z,18.6
2017-10-10T12:46:37.506Z,18.5
2017-10-10T12:47:39.944Z,18.5
2017-10-10T12:48:42.372Z,18.5
2017-10-10T12:49:44.811Z,18.5
2017-10-10T12:50:47.238Z,18.5
2017-10-10T12:51:49.677Z,18.4
2017-10-10T12:52:52.109Z,18.4
2017-10-10T12:53:54.548Z,18.4
2017-10-10T12:54:56.977Z,18.4
2017-10-10T12:55:59.415Z,18.4
2017-10-10T12:57:01.866Z,18.4
2017-10-10T12:58:04.311Z,18.4
2017-10-10T12:59:06.748Z,18.4
2017-10-10T13:00:09.542Z,18.4
2017-10-10T13:01:11.975Z,18.4
2017-10-10T13:02:14.410Z,18.4
2017-10-10T13:03:16.843Z,18.4
2017-10-10T13:04:19.275Z,18.4
2017-10-10T13:05:21.712Z,18.4
2017-10-10T13:06:24.146Z,18.4
2017-10-10T13:07:26.582Z,18.5
2017-10-10T13:08:29.029Z,18.5
2017-10-10T13:09:31.457Z,18.5
2017-10-10T13:10:33.883Z,18.5
2017-10-10T13:11:36.319Z,18.5
2017-10-10T13:12:39.098Z,18.5
2017-10-10T13:13:41.529Z,18.5
2017-10-10T13:14:43.960Z,18.5
2017-10-10T13:15:46.388Z,18.5
2017-10-10T13:16:48.823Z,18.5
2017-10-10T13:17:51.257Z,18.6
2017-10-10T13:19:44.992Z,18.5
2017-10-10T13:20:47.383Z,18.6
2017-10-10T13:21:50.119Z,18.6
2017-10-10T13:22:52.481Z,18.6
2017-10-10T13:23:54.862Z,18.7
2017-10-10T13:24:57.249Z,18.7
2017-10-10T13:25:59.635Z,18.8
2017-10-10T13:27:02.015Z,18.9
2017-10-10T13:28:04.596Z,18.9
2017-10-10T13:29:06.977Z,19
2017-10-10T13:30:09.368Z,19.1
2017-10-10T13:31:11.749Z,19.1
2017-10-10T13:32:14.117Z,19.2
2017-10-10T13:33:16.496Z,19.3
2017-10-10T13:34:19.589Z,19.4
2017-10-10T13:35:21.972Z,19.4
2017-10-10T13:36:24.357Z,19.4
2017-10-10T13:37:26.733Z,19.4
2017-10-10T13:38:29.116Z,19.4
2017-10-10T13:39:31.510Z,19.4
2017-10-10T13:40:33.894Z,19.4
2017-10-10T13:41:36.269Z,19.4
2017-10-10T13:42:38.645Z,19.5
2017-10-10T13:43:41.377Z,19.5
2017-10-10T13:44:43.771Z,19.5
2017-10-10T13:45:46.146Z,19.5
2017-10-10T13:46:48.538Z,19.5
2017-10-10T13:47:50.910Z,19.5
2017-10-10T13:48:53.307Z,19.5
2017-10-10T13:49:55.682Z,19.5
2017-10-10T13:50:58.061Z,19.4
2017-10-10T13:52:00.435Z,19.4
2017-10-10T13:53:02.809Z,19.4
2017-10-10T13:54:05.200Z,19.4
2017-10-10T13:55:07.582Z,19.4
2017-10-10T13:56:09.960Z,19.4
2017-10-10T13:57:12.338Z,19.4
2017-10-10T13:58:15.075Z,19.5
2017-10-10T13:59:17.465Z,19.5
2017-10-10T14:00:19.849Z,19.5
2017-10-10T14:01:22.212Z,19.4